Time;durP1;ratioP1;P1;durP2;ratioP2;P2;SDS_P1;SDS_P2;PMS_P1;PMS_P2;Temp;Humidity;BMP_temperature;BMP_pressure;BME280_temperature;BME280_humidity;BME280_pressure;Samples;Min_cycle;Max_cycle;Signal;HPM_P1;HPM_P2
2023/08/10 00:01:51;;;;;;;;;;;18.50;68.30;;;;;;5094676;28;19988;-71
2023/08/10 00:04:16;;;;;;;;;;;18.50;68.20;;;;;;5096223;28;20052;-72
2023/08/10 00:06:42;;;;;;;;;;;18.50;68.30;;;;;;5114073;28;20396;-64
2023/08/10 00:09:08;;;;;;;;;;;18.50;68.20;;;;;;5096218;28;19923;-64
2023/08/10 00:11:34;;;;;;;;;;;18.50;68.30;;;;;;5095872;28;19959;-64
2023/08/10 00:13:59;;;;;;;;;;;18.50;68.30;;;;;;5095756;28;20431;-64
2023/08/10 00:16:25;;;;;;;;;;;18.50;68.30;;;;;;5095906;28;19998;-64
2023/08/10 00:18:50;;;;;;;;;;;18.50;68.30;;;;;;5095608;28;19923;-72
2023/08/10 00:21:15;;;;;;;;;;;18.50;68.30;;;;;;5113620;28;19931;-64
2023/08/10 00:23:41;;;;;;;;;;;18.50;68.30;;;;;;5095860;28;19967;-71
2023/08/10 00:26:07;;;;;;;;;;;18.50;68.20;;;;;;5095753;28;19969;-72
2023/08/10 00:28:33;;;;;;;;;;;18.50;68.20;;;;;;5113659;28;19920;-64
2023/08/10 00:30:59;;;;;;;;;;;18.40;68.20;;;;;;5113676;28;19920;-71
2023/08/10 00:33:24;;;;;;;;;;;18.50;68.30;;;;;;5095683;28;19974;-72
2023/08/10 00:35:50;;;;;;;;;;;18.50;68.30;;;;;;5095316;28;19970;-64
2023/08/10 00:38:15;;;;;;;;;;;18.50;68.30;;;;;;5095585;28;20297;-64
2023/08/10 00:40:41;;;;;;;;;;;18.50;68.30;;;;;;5113454;28;20108;-72
2023/08/10 00:43:07;;;;;;;;;;;18.40;68.20;;;;;;5113339;28;19920;-64
2023/08/10 00:45:32;;;;;;;;;;;18.50;68.40;;;;;;5095164;28;19920;-64
2023/08/10 00:47:58;;;;;;;;;;;18.50;68.30;;;;;;5095354;28;19926;-64
2023/08/10 00:50:24;;;;;;;;;;;18.50;68.30;;;;;;5095602;28;19989;-64
2023/08/10 00:52:50;;;;;;;;;;;18.40;68.30;;;;;;5113401;28;20593;-64
2023/08/10 00:55:16;;;;;;;;;;;18.50;68.40;;;;;;5113277;28;20283;-71
2023/08/10 00:57:41;;;;;;;;;;;18.50;68.40;;;;;;5095219;28;19950;-70
2023/08/10 01:00:10;;;;;;;;;;;18.40;68.30;;;;;;5095141;28;19930;-72
2023/08/10 01:02:37;;;;;;;;;;;18.40;68.30;;;;;;5094752;28;19970;-64
2023/08/10 01:05:02;;;;;;;;;;;18.40;68.30;;;;;;5113083;28;20462;-66
2023/08/10 01:07:34;;;;;;;;;;;18.40;68.30;;;;;;5094667;28;20010;-72
2023/08/10 01:10:20;;;;;;;;;;;18.50;68.40;;;;;;5113098;28;19951;-64
2023/08/10 01:12:50;;;;;;;;;;;18.50;68.40;;;;;;5112440;28;19976;-71
2023/08/10 01:15:18;;;;;;;;;;;18.40;68.40;;;;;;5095148;28;20015;-71
2023/08/10 01:17:48;;;;;;;;;;;18.40;68.40;;;;;;5112956;28;20290;-72
2023/08/10 01:20:15;;;;;;;;;;;18.50;68.50;;;;;;5094784;28;19924;-64
2023/08/10 01:25:24;;;;;;;;;;;18.40;68.40;;;;;;5110318;27;19916;-71
2023/08/10 01:27:50;;;;;;;;;;;18.40;68.40;;;;;;5109042;28;19931;-70
2023/08/10 01:30:15;;;;;;;;;;;18.40;68.40;;;;;;5109281;28;19920;-64
2023/08/10 01:32:41;;;;;;;;;;;18.40;68.50;;;;;;5108955;28;20330;-64
2023/08/10 01:35:07;;;;;;;;;;;18.40;68.50;;;;;;5092108;28;19920;-64
2023/08/10 01:37:33;;;;;;;;;;;18.40;68.50;;;;;;5109120;28;19924;-72
2023/08/10 01:39:59;;;;;;;;;;;18.50;68.50;;;;;;5108941;28;20314;-72
2023/08/10 01:42:24;;;;;;;;;;;18.40;68.50;;;;;;5108992;28;19931;-64
2023/08/10 01:44:50;;;;;;;;;;;18.40;68.50;;;;;;5108842;28;20443;-71
2023/08/10 01:47:18;;;;;;;;;;;18.40;68.50;;;;;;5108600;28;19920;-64
2023/08/10 01:49:48;;;;;;;;;;;18.40;68.50;;;;;;5109855;28;20255;-64
2023/08/10 01:52:14;;;;;;;;;;;18.40;68.50;;;;;;5108806;28;20015;-64
2023/08/10 01:54:40;;;;;;;;;;;18.40;68.50;;;;;;5108329;28;20472;-64
2023/08/10 01:57:06;;;;;;;;;;;18.40;68.50;;;;;;5108787;28;19967;-71
2023/08/10 01:59:31;;;;;;;;;;;18.40;68.50;;;;;;5108318;28;19942;-64
2023/08/10 02:01:57;;;;;;;;;;;18.40;68.50;;;;;;5108613;28;19920;-71
2023/08/10 02:04:23;;;;;;;;;;;18.40;68.50;;;;;;5108169;28;19924;-64
2023/08/10 02:06:48;;;;;;;;;;;18.40;68.50;;;;;;5108603;28;19920;-64
2023/08/10 02:09:14;;;;;;;;;;;18.40;68.50;;;;;;5108244;28;19926;-71
2023/08/10 02:11:39;;;;;;;;;;;18.40;68.50;;;;;;5108124;28;19920;-64
2023/08/10 02:14:05;;;;;;;;;;;18.40;68.50;;;;;;5108464;28;19967;-71
2023/08/10 02:16:30;;;;;;;;;;;18.40;68.50;;;;;;5109413;28;19920;-64
2023/08/10 02:18:55;;;;;;;;;;;18.30;68.50;;;;;;5109314;28;19920;-64
2023/08/10 02:21:23;;;;;;;;;;;18.30;68.50;;;;;;5108400;28;19963;-64
2023/08/10 02:23:50;;;;;;;;;;;18.30;68.60;;;;;;5107581;28;20346;-64
2023/08/10 02:26:16;;;;;;;;;;;18.30;68.50;;;;;;5108082;28;19924;-64
2023/08/10 02:28:41;;;;;;;;;;;18.30;68.60;;;;;;5108067;28;20278;-64
2023/08/10 02:31:07;;;;;;;;;;;18.30;68.50;;;;;;5142160;27;19920;-71
2023/08/10 02:33:33;;;;;;;;;;;18.30;68.60;;;;;;5108099;28;19920;-71
2023/08/10 02:35:58;;;;;;;;;;;18.30;68.60;;;;;;5098117;28;19920;-71
2023/08/10 02:38:24;;;;;;;;;;;18.30;68.60;;;;;;5094445;28;19924;-71
2023/08/10 02:40:49;;;;;;;;;;;18.30;68.60;;;;;;5093960;28;20443;-64
2023/08/10 02:43:15;;;;;;;;;;;18.30;68.60;;;;;;5094181;28;19924;-71
2023/08/10 02:45:40;;;;;;;;;;;18.30;68.60;;;;;;5093916;28;19924;-67
2023/08/10 02:48:06;;;;;;;;;;;18.30;68.60;;;;;;5077302;28;19920;-72
2023/08/10 02:50:31;;;;;;;;;;;18.30;68.60;;;;;;5094251;28;20018;-72
2023/08/10 02:52:57;;;;;;;;;;;18.30;68.60;;;;;;5094171;28;19929;-64
2023/08/10 02:55:22;;;;;;;;;;;18.30;68.60;;;;;;5094009;28;20355;-71
2023/08/10 02:57:48;;;;;;;;;;;18.30;68.60;;;;;;5093631;28;19924;-71
2023/08/10 03:00:14;;;;;;;;;;;18.30;68.70;;;;;;5094068;28;19974;-72
2023/08/10 03:02:40;;;;;;;;;;;18.30;68.70;;;;;;5093551;28;19931;-72
2023/08/10 03:05:06;;;;;;;;;;;18.30;68.70;;;;;;5094914;28;19924;-72
2023/08/10 03:07:31;;;;;;;;;;;18.30;68.70;;;;;;5093733;28;19924;-65
2023/08/10 03:09:57;;;;;;;;;;;18.30;68.70;;;;;;5093486;28;19931;-71
2023/08/10 03:12:23;;;;;;;;;;;18.30;68.70;;;;;;5093599;28;19923;-71
2023/08/10 03:14:48;;;;;;;;;;;18.30;68.70;;;;;;5094609;28;19942;-64
2023/08/10 03:17:14;;;;;;;;;;;18.30;68.80;;;;;;5093306;28;19923;-64
2023/08/10 03:19:43;;;;;;;;;;;18.30;68.80;;;;;;5093245;28;20141;-64
2023/08/10 03:22:09;;;;;;;;;;;18.20;68.70;;;;;;5094886;28;20375;-71
2023/08/10 03:24:35;;;;;;;;;;;18.30;68.80;;;;;;5092929;28;19935;-64
2023/08/10 03:27:01;;;;;;;;;;;18.20;68.70;;;;;;5093258;28;19920;-64
2023/08/10 03:29:26;;;;;;;;;;;18.30;68.80;;;;;;5094464;28;20291;-64
2023/08/10 03:31:52;;;;;;;;;;;18.20;68.70;;;;;;5094541;28;19938;-64
2023/08/10 03:34:17;;;;;;;;;;;18.20;68.80;;;;;;5094186;28;19927;-65
2023/08/10 03:36:43;;;;;;;;;;;18.20;68.80;;;;;;5093185;28;19920;-64
2023/08/10 03:39:08;;;;;;;;;;;18.20;68.80;;;;;;5094158;28;20018;-64
2023/08/10 03:41:34;;;;;;;;;;;18.20;68.80;;;;;;5093060;28;20003;-64
2023/08/10 03:44:02;;;;;;;;;;;18.20;68.80;;;;;;5092804;28;19989;-71
2023/08/10 03:46:28;;;;;;;;;;;18.20;68.80;;;;;;5091441;28;19920;-71
2023/08/10 03:48:53;;;;;;;;;;;18.20;68.80;;;;;;5093589;28;19927;-71
2023/08/10 03:51:20;;;;;;;;;;;18.20;68.80;;;;;;5092958;28;20367;-64
2023/08/10 03:53:45;;;;;;;;;;;18.20;68.90;;;;;;5092556;28;19923;-64
2023/08/10 03:56:11;;;;;;;;;;;18.20;68.90;;;;;;5093890;28;20073;-64
2023/08/10 03:58:37;;;;;;;;;;;18.20;68.90;;;;;;5092389;28;20451;-64
2023/08/10 04:01:03;;;;;;;;;;;18.20;68.90;;;;;;5093920;28;19920;-71
2023/08/10 04:03:29;;;;;;;;;;;18.20;68.90;;;;;;5092400;28;19924;-64
2023/08/10 04:05:55;;;;;;;;;;;18.20;68.90;;;;;;5093738;28;19950;-72
2023/08/10 04:08:20;;;;;;;;;;;18.20;68.90;;;;;;5093636;28;19920;-71
2023/08/10 04:10:46;;;;;;;;;;;18.20;68.90;;;;;;5091694;28;19966;-71
2023/08/10 04:13:11;;;;;;;;;;;18.20;68.90;;;;;;5093478;28;19920;-71
2023/08/10 04:15:37;;;;;;;;;;;18.20;68.90;;;;;;5092148;28;19920;-64
2023/08/10 04:18:03;;;;;;;;;;;18.20;69.00;;;;;;5092599;28;20034;-64
2023/08/10 04:20:30;;;;;;;;;;;18.20;68.90;;;;;;5092034;28;19927;-64
2023/08/10 04:22:57;;;;;;;;;;;18.20;68.90;;;;;;5092011;28;19931;-64
2023/08/10 04:25:23;;;;;;;;;;;18.20;69.00;;;;;;5113542;28;19930;-64
2023/08/10 04:27:48;;;;;;;;;;;18.20;69.00;;;;;;5095649;28;19919;-64
2023/08/10 04:30:14;;;;;;;;;;;18.20;69.00;;;;;;5113501;28;19920;-65
2023/08/10 04:32:39;;;;;;;;;;;18.20;69.00;;;;;;5095344;28;19954;-64
2023/08/10 04:35:06;;;;;;;;;;;18.20;69.00;;;;;;5113448;28;19931;-65
2023/08/10 04:37:31;;;;;;;;;;;18.20;69.00;;;;;;5095236;28;20011;-64
2023/08/10 04:39:57;;;;;;;;;;;18.20;69.00;;;;;;5095022;28;20006;-64
2023/08/10 04:42:22;;;;;;;;;;;18.20;69.00;;;;;;5095456;28;19919;-72
2023/08/10 04:44:47;;;;;;;;;;;18.20;69.00;;;;;;5113158;28;19927;-71
2023/08/10 04:47:13;;;;;;;;;;;18.20;69.00;;;;;;5095650;28;19924;-64
2023/08/10 04:49:38;;;;;;;;;;;18.20;69.00;;;;;;5095000;28;20061;-64
2023/08/10 04:52:04;;;;;;;;;;;18.10;69.00;;;;;;5095277;28;20064;-64
2023/08/10 04:54:30;;;;;;;;;;;18.20;69.10;;;;;;5113180;28;20366;-64
2023/08/10 04:56:55;;;;;;;;;;;18.20;69.00;;;;;;5094844;28;19927;-64
2023/08/10 04:59:21;;;;;;;;;;;18.10;69.00;;;;;;5094941;28;19920;-64
2023/08/10 05:01:46;;;;;;;;;;;18.10;69.00;;;;;;5094767;28;19992;-72
2023/08/10 05:04:14;;;;;;;;;;;18.10;69.00;;;;;;5112972;28;20015;-68
2023/08/10 05:06:40;;;;;;;;;;;18.20;69.10;;;;;;5094978;28;19924;-72
2023/08/10 05:09:05;;;;;;;;;;;18.10;69.00;;;;;;5113394;28;19934;-64
2023/08/10 05:11:31;;;;;;;;;;;18.20;69.10;;;;;;5094586;28;19969;-64
2023/08/10 05:13:56;;;;;;;;;;;18.10;69.70;;;;;;5094563;28;20006;-64
2023/08/10 05:16:22;;;;;;;;;;;18.20;69.10;;;;;;5128739;27;19994;-64
2023/08/10 05:18:47;;;;;;;;;;;18.10;69.00;;;;;;5094925;28;19926;-64
2023/08/10 05:21:13;;;;;;;;;;;18.20;69.10;;;;;;5112766;28;19924;-64
2023/08/10 05:23:40;;;;;;;;;;;18.10;69.00;;;;;;5112568;28;19930;-64
2023/08/10 05:26:07;;;;;;;;;;;18.10;69.00;;;;;;5094484;28;19924;-64
2023/08/10 05:28:32;;;;;;;;;;;18.10;69.10;;;;;;5112759;28;20294;-72
2023/08/10 05:30:58;;;;;;;;;;;18.10;69.00;;;;;;5094396;28;19927;-64
2023/08/10 05:33:23;;;;;;;;;;;18.20;69.10;;;;;;5094493;28;19920;-72
2023/08/10 05:35:49;;;;;;;;;;;18.20;69.10;;;;;;5113076;28;19920;-64
2023/08/10 05:38:14;;;;;;;;;;;18.10;69.10;;;;;;5094760;28;20374;-71
2023/08/10 05:40:40;;;;;;;;;;;18.10;69.00;;;;;;5094409;28;20008;-71
2023/08/10 05:43:06;;;;;;;;;;;18.10;69.00;;;;;;5112503;28;19927;-71
2023/08/10 05:45:31;;;;;;;;;;;18.10;69.00;;;;;;5128771;28;19920;-72
2023/08/10 05:47:57;;;;;;;;;;;18.10;69.10;;;;;;5112517;28;19973;-71
2023/08/10 05:50:22;;;;;;;;;;;18.10;69.00;;;;;;5094701;28;19927;-71
2023/08/10 05:52:47;;;;;;;;;;;18.10;69.10;;;;;;5093926;28;19929;-64
2023/08/10 05:55:14;;;;;;;;;;;18.10;69.10;;;;;;5094570;28;19920;-66
2023/08/10 05:57:40;;;;;;;;;;;18.10;69.10;;;;;;5094551;28;20003;-71
2023/08/10 06:00:06;;;;;;;;;;;18.10;69.10;;;;;;5094799;28;19920;-64
2023/08/10 06:02:32;;;;;;;;;;;18.20;69.20;;;;;;5094057;28;19920;-64
2023/08/10 06:04:57;;;;;;;;;;;18.10;69.10;;;;;;5094182;28;19968;-68
2023/08/10 06:07:23;;;;;;;;;;;18.20;69.20;;;;;;5094367;28;20358;-64
2023/08/10 06:09:48;;;;;;;;;;;18.20;69.90;;;;;;5094171;28;19923;-71
2023/08/10 06:12:16;;;;;;;;;;;18.20;69.20;;;;;;5098313;28;19924;-64
2023/08/10 06:14:41;;;;;;;;;;;18.10;69.10;;;;;;5098199;28;19920;-72
2023/08/10 06:17:07;;;;;;;;;;;18.10;69.10;;;;;;5116560;28;19920;-72
2023/08/10 06:19:34;;;;;;;;;;;18.20;69.20;;;;;;5098041;28;20367;-64
2023/08/10 06:22:00;;;;;;;;;;;18.10;69.10;;;;;;5097782;28;19919;-64
2023/08/10 06:24:25;;;;;;;;;;;18.20;69.20;;;;;;5097386;28;20275;-64
2023/08/10 06:26:51;;;;;;;;;;;18.20;69.20;;;;;;5115907;28;19920;-64
2023/08/10 06:29:16;;;;;;;;;;;18.20;69.20;;;;;;5115870;28;19920;-71
2023/08/10 06:31:42;;;;;;;;;;;18.20;69.10;;;;;;5115790;28;19930;-64
2023/08/10 06:34:07;;;;;;;;;;;18.20;69.20;;;;;;5115748;28;20454;-72
2023/08/10 06:36:34;;;;;;;;;;;18.20;69.10;;;;;;5097745;28;20444;-64
2023/08/10 06:39:00;;;;;;;;;;;18.20;69.10;;;;;;5115805;28;20298;-71
2023/08/10 06:41:26;;;;;;;;;;;18.20;69.10;;;;;;5097700;28;19920;-64
2023/08/10 06:43:51;;;;;;;;;;;18.20;69.10;;;;;;5097208;28;20376;-64
2023/08/10 06:46:17;;;;;;;;;;;18.20;69.00;;;;;;5115659;28;19926;-64
2023/08/10 06:48:42;;;;;;;;;;;18.20;69.80;;;;;;5115345;28;20386;-64
2023/08/10 06:51:08;;;;;;;;;;;18.20;69.00;;;;;;5115660;28;19925;-64
2023/08/10 06:53:33;;;;;;;;;;;18.20;69.00;;;;;;5115441;28;19919;-64
2023/08/10 06:55:59;;;;;;;;;;;18.20;69.00;;;;;;5097354;28;19942;-64
2023/08/10 06:58:25;;;;;;;;;;;18.20;69.00;;;;;;5115724;28;20393;-65
2023/08/10 07:00:50;;;;;;;;;;;18.20;69.00;;;;;;5097267;28;19927;-64
2023/08/10 07:03:16;;;;;;;;;;;18.20;69.00;;;;;;5096753;28;20003;-65
2023/08/10 07:05:42;;;;;;;;;;;18.20;69.00;;;;;;5097198;28;19927;-64
2023/08/10 07:08:08;;;;;;;;;;;18.20;69.00;;;;;;5096938;28;19920;-72
2023/08/10 07:10:35;;;;;;;;;;;18.20;69.00;;;;;;5097180;28;19927;-72
2023/08/10 07:13:01;;;;;;;;;;;18.20;69.00;;;;;;5096695;28;19927;-67
2023/08/10 07:15:26;;;;;;;;;;;18.20;69.00;;;;;;5097022;28;19920;-72
2023/08/10 07:17:52;;;;;;;;;;;18.30;69.00;;;;;;5114972;28;20415;-64
2023/08/10 07:20:18;;;;;;;;;;;18.20;69.00;;;;;;5096954;28;19923;-72
2023/08/10 07:22:45;;;;;;;;;;;18.20;69.00;;;;;;5096540;28;19959;-71
2023/08/10 07:25:11;;;;;;;;;;;18.30;69.00;;;;;;5092896;28;19924;-64
2023/08/10 07:27:37;;;;;;;;;;;18.30;69.10;;;;;;5094408;28;20383;-69
2023/08/10 07:30:03;;;;;;;;;;;18.20;69.00;;;;;;5093332;28;19927;-71
2023/08/10 07:32:29;;;;;;;;;;;18.30;69.10;;;;;;5094376;28;19927;-64
2023/08/10 07:34:54;;;;;;;;;;;18.20;69.00;;;;;;5093583;28;19920;-64
2023/08/10 07:37:20;;;;;;;;;;;18.30;69.00;;;;;;5093244;28;19919;-72
2023/08/10 07:39:45;;;;;;;;;;;18.30;68.90;;;;;;5093274;28;19927;-64
2023/08/10 07:42:11;;;;;;;;;;;18.30;68.90;;;;;;5092854;28;19927;-64
2023/08/10 07:44:36;;;;;;;;;;;18.20;68.80;;;;;;5094062;28;19928;-70
2023/08/10 07:47:02;;;;;;;;;;;18.30;68.90;;;;;;5093112;28;20209;-71
2023/08/10 07:49:27;;;;;;;;;;;18.30;68.80;;;;;;5092951;28;19935;-64
2023/08/10 07:51:53;;;;;;;;;;;18.30;68.80;;;;;;5092981;28;20007;-64
2023/08/10 07:54:19;;;;;;;;;;;18.20;68.80;;;;;;5092963;28;19920;-64
2023/08/10 07:56:45;;;;;;;;;;;18.30;68.80;;;;;;5092569;28;19924;-64
2023/08/10 07:59:11;;;;;;;;;;;18.30;68.80;;;;;;5092831;28;19920;-65
2023/08/10 08:01:38;;;;;;;;;;;18.30;68.80;;;;;;5092435;28;20298;-65
2023/08/10 08:04:03;;;;;;;;;;;18.30;68.80;;;;;;5092541;28;19924;-64
2023/08/10 08:06:29;;;;;;;;;;;18.30;68.80;;;;;;5092595;28;19924;-64
2023/08/10 08:08:54;;;;;;;;;;;18.30;68.70;;;;;;5092683;28;20432;-64
2023/08/10 08:11:20;;;;;;;;;;;18.30;68.80;;;;;;5092303;28;19948;-64
2023/08/10 08:13:45;;;;;;;;;;;18.30;68.80;;;;;;5092556;28;20007;-72
2023/08/10 08:16:10;;;;;;;;;;;18.30;68.70;;;;;;5092749;28;19950;-64
2023/08/10 08:18:41;;;;;;;;;;;18.30;68.80;;;;;;5121482;27;20394;-69
2023/08/10 08:21:09;;;;;;;;;;;18.30;68.80;;;;;;5084946;28;20399;-64
2023/08/10 08:23:34;;;;;;;;;;;18.30;69.20;;;;;;5081978;28;19924;-63
2023/08/10 08:26:00;;;;;;;;;;;18.40;69.40;;;;;;5093027;28;20290;-66
2023/08/10 08:28:25;;;;;;;;;;;18.50;69.50;;;;;;5111729;28;19923;-74
2023/08/10 08:30:52;;;;;;;;;;;18.50;69.60;;;;;;5095633;28;19927;-65
2023/08/10 08:33:17;;;;;;;;;;;18.50;69.60;;;;;;5094697;28;19920;-73
2023/08/10 08:35:43;;;;;;;;;;;18.50;69.70;;;;;;5095150;28;20272;-73
2023/08/10 08:38:09;;;;;;;;;;;18.50;69.70;;;;;;5095416;28;19931;-73
2023/08/10 08:40:35;;;;;;;;;;;18.50;69.70;;;;;;5095168;28;20305;-74
2023/08/10 08:43:03;;;;;;;;;;;18.50;69.80;;;;;;5113135;28;20018;-66
2023/08/10 08:45:28;;;;;;;;;;;18.40;69.70;;;;;;5094651;28;19923;-65
2023/08/10 08:47:54;;;;;;;;;;;18.50;69.70;;;;;;5095296;28;19919;-65
2023/08/10 08:50:19;;;;;;;;;;;18.40;69.70;;;;;;5094995;28;19920;-73
2023/08/10 08:52:45;;;;;;;;;;;18.40;69.70;;;;;;5113117;28;19947;-65
2023/08/10 08:55:11;;;;;;;;;;;18.40;69.70;;;;;;5094850;28;20282;-73
2023/08/10 08:57:37;;;;;;;;;;;18.40;69.70;;;;;;5095187;28;20485;-73
2023/08/10 09:00:03;;;;;;;;;;;18.40;69.60;;;;;;5095069;28;19995;-73
2023/08/10 09:02:29;;;;;;;;;;;18.40;69.60;;;;;;5094809;28;19997;-65
2023/08/10 09:04:59;;;;;;;;;;;18.40;70.30;;;;;;5112945;28;19953;-65
2023/08/10 09:07:26;;;;;;;;;;;18.40;69.60;;;;;;5112963;28;20005;-73
2023/08/10 09:09:52;;;;;;;;;;;18.40;70.30;;;;;;5113126;28;19927;-73
2023/08/10 09:12:34;;;;;;;;;;;18.40;69.50;;;;;;5095046;28;19919;-65
2023/08/10 09:17:48;;;;;;;;;;;18.40;69.50;;;;;;5110276;27;19912;-66
2023/08/10 09:20:22;;;;;;;;;;;18.40;69.50;;;;;;5108917;28;20404;-65
2023/08/10 09:22:49;;;;;;;;;;;18.30;69.40;;;;;;5109303;28;19920;-65
2023/08/10 09:25:15;;;;;;;;;;;18.30;69.40;;;;;;5108872;28;19965;-65
2023/08/10 09:27:40;;;;;;;;;;;18.40;69.40;;;;;;5109265;28;19921;-65
2023/08/10 09:30:07;;;;;;;;;;;18.40;69.40;;;;;;5109065;28;19920;-65
2023/08/10 09:32:32;;;;;;;;;;;18.40;69.50;;;;;;5109083;28;20313;-65
2023/08/10 09:34:58;;;;;;;;;;;18.30;69.40;;;;;;5109041;28;19924;-74
2023/08/10 09:37:24;;;;;;;;;;;18.30;69.30;;;;;;5108972;28;19920;-65
2023/08/10 09:39:57;;;;;;;;;;;18.30;69.30;;;;;;5108885;28;19947;-65
2023/08/10 09:42:23;;;;;;;;;;;18.30;69.30;;;;;;5109842;28;19964;-65
2023/08/10 09:44:50;;;;;;;;;;;18.30;69.30;;;;;;5109738;28;19924;-73
2023/08/10 09:47:16;;;;;;;;;;;18.40;69.40;;;;;;5108891;28;20392;-65
2023/08/10 09:49:53;;;;;;;;;;;18.30;69.30;;;;;;5108660;28;20006;-66
2023/08/10 09:52:19;;;;;;;;;;;18.30;69.30;;;;;;5107680;28;20061;-65
2023/08/10 09:54:45;;;;;;;;;;;18.40;69.30;;;;;;5109847;28;20010;-65
2023/08/10 09:57:11;;;;;;;;;;;18.30;69.20;;;;;;5108253;28;20016;-73
2023/08/10 09:59:36;;;;;;;;;;;18.30;69.30;;;;;;5109545;28;19927;-73
2023/08/10 10:02:03;;;;;;;;;;;18.40;69.30;;;;;;5108420;28;19927;-65
2023/08/10 10:04:29;;;;;;;;;;;18.30;69.30;;;;;;5108464;28;19931;-73
2023/08/10 10:06:56;;;;;;;;;;;18.30;69.30;;;;;;5108028;28;19920;-74
2023/08/10 10:09:22;;;;;;;;;;;18.30;69.30;;;;;;5108069;28;19927;-65
2023/08/10 10:11:49;;;;;;;;;;;18.30;69.30;;;;;;5108273;28;19920;-65
2023/08/10 10:14:15;;;;;;;;;;;18.30;69.20;;;;;;5107894;28;19920;-65
2023/08/10 10:16:41;;;;;;;;;;;18.30;69.20;;;;;;5107642;28;20002;-65
2023/08/10 10:19:06;;;;;;;;;;;18.40;69.30;;;;;;5108151;28;20276;-74
2023/08/10 10:21:32;;;;;;;;;;;18.30;69.20;;;;;;5107692;28;19958;-65
2023/08/10 10:24:00;;;;;;;;;;;18.40;69.30;;;;;;5107469;28;20451;-73
2023/08/10 10:26:26;;;;;;;;;;;18.40;69.30;;;;;;5108016;28;20287;-66
2023/08/10 10:29:12;;;;;;;;;;;18.40;69.20;;;;;;5095640;28;19927;-74
2023/08/10 10:31:38;;;;;;;;;;;18.30;69.20;;;;;;5093756;28;20386;-66
2023/08/10 10:34:04;;;;;;;;;;;18.30;69.10;;;;;;5094353;28;19920;-65
2023/08/10 10:36:32;;;;;;;;;;;18.40;69.20;;;;;;5093827;28;19931;-73
2023/08/10 10:39:04;;;;;;;;;;;18.30;69.10;;;;;;5093945;28;19920;-74
2023/08/10 10:41:32;;;;;;;;;;;18.40;69.20;;;;;;5094350;28;19927;-73
2023/08/10 10:43:57;;;;;;;;;;;18.40;69.20;;;;;;5093817;28;19924;-65
2023/08/10 10:46:40;;;;;;;;;;;18.40;69.20;;;;;;5094045;28;19957;-66
2023/08/10 10:49:07;;;;;;;;;;;18.40;69.10;;;;;;5094051;28;20018;-74
2023/08/10 10:51:42;;;;;;;;;;;18.40;69.20;;;;;;5093694;28;19923;-73
2023/08/10 10:54:07;;;;;;;;;;;18.40;69.20;;;;;;5094966;28;20007;-72
2023/08/10 10:56:33;;;;;;;;;;;18.40;69.10;;;;;;5094035;28;20036;-73
2023/08/10 10:58:58;;;;;;;;;;;18.40;69.20;;;;;;5094692;28;19946;-66
2023/08/10 11:01:24;;;;;;;;;;;18.30;69.10;;;;;;5094894;28;19920;-73
2023/08/10 11:03:52;;;;;;;;;;;18.40;69.20;;;;;;5093719;28;20402;-73
2023/08/10 11:06:20;;;;;;;;;;;18.40;69.10;;;;;;5093292;28;20382;-73
2023/08/10 11:08:51;;;;;;;;;;;18.40;69.10;;;;;;5093571;28;19967;-73
2023/08/10 11:11:16;;;;;;;;;;;18.40;69.10;;;;;;5093259;28;20402;-65
2023/08/10 11:13:42;;;;;;;;;;;18.40;69.20;;;;;;5094464;28;19963;-65
2023/08/10 11:16:09;;;;;;;;;;;18.40;69.10;;;;;;5093202;28;19931;-65
2023/08/10 11:18:36;;;;;;;;;;;18.40;69.10;;;;;;5093040;28;19920;-68
2023/08/10 11:21:05;;;;;;;;;;;18.40;69.20;;;;;;5094364;28;20287;-74
2023/08/10 11:23:30;;;;;;;;;;;18.40;69.10;;;;;;5093041;28;19920;-73
2023/08/10 11:25:57;;;;;;;;;;;18.40;69.10;;;;;;5092905;28;19924;-65
2023/08/10 11:28:23;;;;;;;;;;;18.40;69.10;;;;;;5094370;28;20290;-74
2023/08/10 11:30:49;;;;;;;;;;;18.40;69.10;;;;;;5093193;28;20303;-71
2023/08/10 11:33:15;;;;;;;;;;;18.40;69.10;;;;;;5092909;28;19920;-73
2023/08/10 11:35:43;;;;;;;;;;;18.40;69.10;;;;;;5093103;28;19927;-73
2023/08/10 11:38:09;;;;;;;;;;;18.40;69.10;;;;;;5093322;28;20015;-65
2023/08/10 11:40:35;;;;;;;;;;;18.40;69.20;;;;;;5092916;28;20387;-73
2023/08/10 11:43:07;;;;;;;;;;;18.40;69.10;;;;;;5092681;28;19964;-66
2023/08/10 11:45:33;;;;;;;;;;;18.40;69.10;;;;;;5092713;28;20382;-73
2023/08/10 11:47:59;;;;;;;;;;;18.40;69.10;;;;;;5092587;28;19924;-73
2023/08/10 11:50:26;;;;;;;;;;;18.40;69.10;;;;;;5092519;28;20302;-73
2023/08/10 11:52:53;;;;;;;;;;;18.40;69.10;;;;;;5093812;28;19920;-73
2023/08/10 11:55:20;;;;;;;;;;;18.40;69.10;;;;;;5092314;28;19931;-74
2023/08/10 11:57:48;;;;;;;;;;;18.50;69.20;;;;;;5092865;28;19921;-66
2023/08/10 12:00:30;;;;;;;;;;;18.40;69.10;;;;;;5093681;28;19965;-66
2023/08/10 12:03:00;;;;;;;;;;;18.40;69.10;;;;;;5093941;28;19966;-66
2023/08/10 12:05:46;;;;;;;;;;;18.40;69.10;;;;;;5092478;28;20363;-65
2023/08/10 12:08:13;;;;;;;;;;;18.40;69.10;;;;;;5092371;28;20264;-73
2023/08/10 12:13:21;;;;;;;;;;;18.40;69.20;;;;;;5110335;27;19912;-66
2023/08/10 12:15:47;;;;;;;;;;;18.40;69.10;;;;;;5110205;28;20002;-73
2023/08/10 12:18:15;;;;;;;;;;;18.40;69.20;;;;;;5109203;28;19920;-74
2023/08/10 12:20:41;;;;;;;;;;;18.50;69.20;;;;;;5108875;28;19920;-65
2023/08/10 12:23:07;;;;;;;;;;;18.50;69.20;;;;;;5109192;28;19920;-65
2023/08/10 12:25:33;;;;;;;;;;;18.50;69.30;;;;;;5109068;28;19920;-74
2023/08/10 12:27:58;;;;;;;;;;;18.50;69.30;;;;;;5108913;28;19950;-65
2023/08/10 12:30:24;;;;;;;;;;;18.50;69.20;;;;;;5108909;28;20324;-65
2023/08/10 12:32:49;;;;;;;;;;;18.50;69.20;;;;;;5108648;28;19930;-65
2023/08/10 12:35:15;;;;;;;;;;;18.50;69.30;;;;;;5108555;28;20422;-65
2023/08/10 12:37:41;;;;;;;;;;;18.50;69.30;;;;;;5109907;28;20348;-73
2023/08/10 12:40:08;;;;;;;;;;;18.50;69.20;;;;;;5108848;28;20362;-66
2023/08/10 12:42:33;;;;;;;;;;;18.50;69.20;;;;;;5109661;28;19930;-73
2023/08/10 12:44:58;;;;;;;;;;;18.50;69.20;;;;;;5109779;28;20290;-65
2023/08/10 12:47:24;;;;;;;;;;;18.50;69.20;;;;;;5108423;28;19920;-73
2023/08/10 12:49:49;;;;;;;;;;;18.50;69.20;;;;;;5108609;28;19920;-65
2023/08/10 12:52:15;;;;;;;;;;;18.50;69.20;;;;;;5108298;28;20018;-71
2023/08/10 12:54:40;;;;;;;;;;;18.50;69.30;;;;;;5108535;28;20386;-65
2023/08/10 12:57:06;;;;;;;;;;;18.50;69.20;;;;;;5108226;28;19927;-73
2023/08/10 12:59:31;;;;;;;;;;;18.50;69.20;;;;;;5108452;28;19920;-65
2023/08/10 13:01:57;;;;;;;;;;;18.50;69.20;;;;;;5108021;28;19920;-65
2023/08/10 13:04:22;;;;;;;;;;;18.50;69.20;;;;;;5109339;28;19926;-65
2023/08/10 13:06:48;;;;;;;;;;;18.50;69.20;;;;;;5109464;28;20432;-66
2023/08/10 13:09:13;;;;;;;;;;;18.50;69.30;;;;;;5108000;28;19920;-65
2023/08/10 13:11:39;;;;;;;;;;;18.50;69.30;;;;;;5107711;28;19924;-65
2023/08/10 13:14:05;;;;;;;;;;;18.50;69.30;;;;;;5108250;28;19971;-74
2023/08/10 13:16:31;;;;;;;;;;;18.50;69.30;;;;;;5108073;28;19947;-66
2023/08/10 13:18:57;;;;;;;;;;;18.50;69.30;;;;;;5109092;28;19920;-65
2023/08/10 13:21:22;;;;;;;;;;;18.50;69.30;;;;;;5108961;28;19920;-73
2023/08/10 13:23:48;;;;;;;;;;;18.50;69.30;;;;;;5100309;28;20385;-71
2023/08/10 13:26:13;;;;;;;;;;;18.50;69.30;;;;;;5094414;28;19949;-74
2023/08/10 13:28:39;;;;;;;;;;;18.50;69.30;;;;;;5094271;28;19964;-73
2023/08/10 13:31:06;;;;;;;;;;;18.50;69.40;;;;;;5093900;28;20353;-73
2023/08/10 13:33:32;;;;;;;;;;;18.50;69.40;;;;;;5095176;28;19924;-65
2023/08/10 13:35:58;;;;;;;;;;;18.60;69.50;;;;;;5094148;28;20283;-66
2023/08/10 13:38:23;;;;;;;;;;;18.50;69.50;;;;;;5093795;28;19927;-73
2023/08/10 13:40:49;;;;;;;;;;;18.60;69.40;;;;;;5095201;28;19920;-73
2023/08/10 13:43:15;;;;;;;;;;;18.60;69.50;;;;;;5095053;28;20012;-65
2023/08/10 13:45:40;;;;;;;;;;;18.60;69.40;;;;;;5093707;28;20014;-73
2023/08/10 13:48:06;;;;;;;;;;;18.60;69.50;;;;;;5094922;28;19999;-73
2023/08/10 13:50:31;;;;;;;;;;;18.60;69.50;;;;;;5093880;28;19920;-73
2023/08/10 13:52:57;;;;;;;;;;;18.60;69.50;;;;;;5093374;28;19927;-65
2023/08/10 13:55:22;;;;;;;;;;;18.60;69.50;;;;;;5093472;28;19920;-65
2023/08/10 13:57:48;;;;;;;;;;;18.50;69.50;;;;;;5093862;28;19920;-65
2023/08/10 14:00:14;;;;;;;;;;;18.60;69.50;;;;;;5094769;28;20414;-73
2023/08/10 14:02:41;;;;;;;;;;;18.60;69.50;;;;;;5093638;28;20019;-73
2023/08/10 14:05:09;;;;;;;;;;;18.60;69.50;;;;;;5093283;28;19920;-73
2023/08/10 14:07:34;;;;;;;;;;;18.60;69.50;;;;;;5093505;28;19920;-73
2023/08/10 14:10:00;;;;;;;;;;;18.60;69.50;;;;;;5093205;28;20394;-65
2023/08/10 14:12:26;;;;;;;;;;;18.60;69.50;;;;;;5094215;28;19924;-66
2023/08/10 14:14:51;;;;;;;;;;;18.60;69.60;;;;;;5092987;28;19923;-65
2023/08/10 14:17:17;;;;;;;;;;;18.60;69.60;;;;;;5093440;28;19920;-65
2023/08/10 14:19:43;;;;;;;;;;;18.60;69.60;;;;;;5094277;28;20015;-65